Havre City County Airport Havre US
ICAO: KHVR
IATA: HVR
Category: Medium
Scheduled Services: No

Elevation: 2591 ft
TransAlt. 18000 ft.

Airport Communications:
ASOS:135.225
GREAT FALLS RDO:123.65
CTAF/UNICOM:122.8

KHVR Zoom In..

Runways:

(A) RW 03 length 3699 ft width 60 ft
---- / hdg 32

(B) RW 08 length 5205 ft width 100 ft
---- / hdg 77

(C) RW 21 length 3699 ft width 60 ft
---- / hdg 212

(D) RW 26 length 5205 ft width 100 ft
---- / hdg 257

Location; KHVR
Day. 19 / Time. 02.53 Zulu
* Altimeter: 29.86
* Temperature: 29° c. 84.2°f.
* Wind from: 330° Speed 08 kn.
Dewpoint: 11° c.
Visibility: 10 Statute Miles.
Clouds: Clear (automated report).

KHVR 190253Z AUTO 33008KT 10SM CLR 29/11 A2986 RMK AO2 SLP092 T02890106 53006


Wind From 330°
Speed 08 kn.

 
 
jpsmedia.com for Web Design worldairports.se 2018   terms of use